createdAt,value
2023-10-29T00:00:03.668Z,90
2023-10-29T00:00:34.785Z,90
2023-10-29T00:00:51.669Z,90
2023-10-29T00:01:24.524Z,90
2023-10-29T00:01:41.777Z,90
2023-10-29T00:02:11.777Z,90
2023-10-29T00:02:34.823Z,90
2023-10-29T00:02:59.880Z,91
2023-10-29T00:03:32.677Z,91
2023-10-29T00:04:03.746Z,91
2023-10-29T00:04:35.984Z,91
2023-10-29T00:05:07.584Z,90
2023-10-29T00:05:34.893Z,90
2023-10-29T00:05:55.572Z,90
2023-10-29T00:06:27.616Z,90
2023-10-29T00:07:00.500Z,90
2023-10-29T00:07:31.590Z,90
2023-10-29T00:08:04.428Z,90
2023-10-29T00:08:34.691Z,90
2023-10-29T00:08:51.729Z,90
2023-10-29T00:09:23.617Z,90
2023-10-29T00:09:40.808Z,90
2023-10-29T00:10:12.513Z,90
2023-10-29T00:10:34.653Z,90
2023-10-29T00:10:59.624Z,89
2023-10-29T00:11:31.703Z,89
2023-10-29T00:12:03.671Z,89
2023-10-29T00:12:35.400Z,89
2023-10-29T00:13:07.569Z,89
2023-10-29T00:13:34.661Z,89
2023-10-29T00:13:55.610Z,89
2023-10-29T00:14:28.740Z,89
2023-10-29T00:14:59.663Z,89
2023-10-29T00:15:32.571Z,89
2023-10-29T00:16:03.637Z,89
2023-10-29T00:16:35.873Z,89
2023-10-29T00:17:07.600Z,89
2023-10-29T00:17:35.538Z,89
2023-10-29T00:17:55.943Z,89
2023-10-29T00:18:27.631Z,89
2023-10-29T00:19:00.569Z,89
2023-10-29T00:19:31.593Z,90
2023-10-29T00:20:04.611Z,90
2023-10-29T00:20:35.404Z,90
2023-10-29T00:21:08.518Z,89
2023-10-29T00:21:34.696Z,89
2023-10-29T00:21:55.528Z,89
2023-10-29T00:22:27.565Z,89
2023-10-29T00:22:59.937Z,89
2023-10-29T00:23:31.628Z,89
2023-10-29T00:24:03.693Z,89
2023-10-29T00:24:34.722Z,89
2023-10-29T00:24:51.633Z,89
2023-10-29T00:25:24.566Z,89
2023-10-29T00:25:41.744Z,89
2023-10-29T00:26:11.601Z,89
2023-10-29T00:26:35.541Z,89
2023-10-29T00:26:59.592Z,89
2023-10-29T00:27:32.542Z,89
2023-10-29T00:28:03.562Z,89
2023-10-29T00:28:35.595Z,89
2023-10-29T00:29:07.676Z,89
2023-10-29T00:29:34.707Z,89
2023-10-29T00:29:55.726Z,89
2023-10-29T00:30:27.869Z,89
2023-10-29T00:31:00.566Z,89
2023-10-29T00:31:31.818Z,89
2023-10-29T00:32:10.056Z,89
2023-10-29T00:32:20.556Z,89
2023-10-29T00:32:51.821Z,89
2023-10-29T00:33:24.726Z,89
2023-10-29T00:33:41.670Z,89
2023-10-29T00:34:12.430Z,89
2023-10-29T00:34:34.722Z,89
2023-10-29T00:34:59.669Z,89
2023-10-29T00:35:32.501Z,89
2023-10-29T00:36:03.616Z,89
2023-10-29T00:36:35.614Z,89
2023-10-29T00:37:07.658Z,89
2023-10-29T00:37:34.650Z,89
2023-10-29T00:37:55.580Z,89
2023-10-29T00:38:27.777Z,89
2023-10-29T00:39:00.672Z,89
2023-10-29T00:39:31.707Z,89
2023-10-29T00:40:04.531Z,89
2023-10-29T00:40:34.799Z,89
2023-10-29T00:41:07.037Z,89
2023-10-29T00:41:24.595Z,89
2023-10-29T00:41:41.737Z,89
2023-10-29T00:42:11.700Z,89
2023-10-29T00:42:34.674Z,89
2023-10-29T00:42:59.704Z,89
2023-10-29T00:43:32.582Z,89
2023-10-29T00:44:03.675Z,89
2023-10-29T00:44:35.837Z,89
2023-10-29T00:45:07.885Z,89
2023-10-29T00:45:35.454Z,89
2023-10-29T00:45:55.872Z,89
2023-10-29T00:46:27.559Z,89
2023-10-29T00:47:00.485Z,89
2023-10-29T00:47:31.639Z,89
2023-10-29T00:48:04.563Z,89
2023-10-29T00:48:34.770Z,89
2023-10-29T00:48:51.775Z,89
2023-10-29T00:49:23.925Z,89
2023-10-29T00:49:41.068Z,89
2023-10-29T00:50:12.491Z,89
2023-10-29T00:50:34.741Z,89
2023-10-29T00:50:59.894Z,89
2023-10-29T00:51:32.292Z,88
2023-10-29T00:52:03.672Z,88
2023-10-29T00:52:34.689Z,88
2023-10-29T00:52:51.578Z,88
2023-10-29T00:53:24.636Z,88
2023-10-29T00:53:41.837Z,88
2023-10-29T00:54:11.619Z,88
2023-10-29T00:54:35.440Z,88
2023-10-29T00:54:59.532Z,88
2023-10-29T00:55:32.503Z,88
2023-10-29T00:56:03.572Z,88
2023-10-29T00:56:35.911Z,88
2023-10-29T00:57:07.653Z,88
2023-10-29T00:57:34.629Z,88
2023-10-29T00:57:55.628Z,88
2023-10-29T00:58:27.637Z,88
2023-10-29T00:59:00.578Z,88
2023-10-29T00:59:31.634Z,88
2023-10-29T01:00:04.903Z,88
2023-10-29T01:00:34.662Z,88
2023-10-29T01:00:51.554Z,88
2023-10-29T01:01:23.558Z,88
2023-10-29T01:01:40.897Z,88
2023-10-29T01:02:12.423Z,88
2023-10-29T01:02:34.814Z,88
2023-10-29T01:02:59.717Z,88
2023-10-29T01:03:32.574Z,88
2023-10-29T01:04:03.612Z,88
2023-10-29T01:04:36.256Z,88
2023-10-29T01:05:07.775Z,88
2023-10-29T01:05:34.708Z,88
2023-10-29T01:05:55.634Z,88
2023-10-29T01:06:27.633Z,88
2023-10-29T01:07:00.479Z,88
2023-10-29T01:07:31.547Z,88
2023-10-29T01:08:04.525Z,88
2023-10-29T01:08:35.467Z,88
2023-10-29T01:09:13.643Z,88
2023-10-29T01:09:24.542Z,88
2023-10-29T01:09:41.753Z,88
2023-10-29T01:10:11.564Z,88
2023-10-29T01:10:34.744Z,88
2023-10-29T01:10:59.610Z,88
2023-10-29T01:11:32.541Z,88
2023-10-29T01:12:03.643Z,88
2023-10-29T01:12:35.586Z,88
2023-10-29T01:13:07.693Z,88
2023-10-29T01:13:34.655Z,88
2023-10-29T01:13:55.726Z,88
2023-10-29T01:14:27.567Z,88
2023-10-29T01:15:01.071Z,88
2023-10-29T01:15:31.614Z,88
2023-10-29T01:16:04.427Z,89
2023-10-29T01:16:34.669Z,89
2023-10-29T01:16:51.706Z,89
2023-10-29T01:17:23.551Z,89
2023-10-29T01:17:40.964Z,89
2023-10-29T01:18:12.606Z,89
2023-10-29T01:18:34.709Z,89
2023-10-29T01:19:00.027Z,89
2023-10-29T01:19:31.512Z,89
2023-10-29T01:20:09.662Z,89
2023-10-29T01:20:20.464Z,89
2023-10-29T01:20:51.571Z,89
2023-10-29T01:21:24.514Z,89
2023-10-29T01:21:41.799Z,90
2023-10-29T01:22:11.577Z,90
2023-10-29T01:22:34.683Z,90
2023-10-29T01:22:59.563Z,90
2023-10-29T01:23:32.416Z,90
2023-10-29T01:24:03.578Z,90
2023-10-29T01:24:36.195Z,90
2023-10-29T01:25:07.968Z,90
2023-10-29T01:25:34.890Z,90
2023-10-29T01:25:55.531Z,90
2023-10-29T01:26:27.549Z,90
2023-10-29T01:27:00.608Z,90
2023-10-29T01:27:31.547Z,90
2023-10-29T01:28:04.549Z,90
2023-10-29T01:28:34.756Z,90
2023-10-29T01:28:51.597Z,90
2023-10-29T01:29:23.543Z,90
2023-10-29T01:29:40.826Z,90
2023-10-29T01:30:13.439Z,90
2023-10-29T01:30:34.749Z,90
2023-10-29T01:30:59.489Z,90
2023-10-29T01:31:31.557Z,90
2023-10-29T01:32:03.525Z,90
2023-10-29T01:32:34.969Z,90
2023-10-29T01:32:51.512Z,90
2023-10-29T01:33:24.482Z,90
2023-10-29T01:33:41.908Z,90
2023-10-29T01:34:11.525Z,90
2023-10-29T01:34:34.686Z,90
2023-10-29T01:34:59.556Z,90
2023-10-29T01:35:32.538Z,90
2023-10-29T01:36:03.521Z,90
2023-10-29T01:36:36.890Z,90
2023-10-29T01:37:07.619Z,90
2023-10-29T01:37:34.664Z,90
2023-10-29T01:37:55.624Z,90
2023-10-29T01:38:27.490Z,90
2023-10-29T01:39:00.455Z,90
2023-10-29T01:39:31.500Z,90
2023-10-29T01:40:04.499Z,90
2023-10-29T01:40:34.668Z,90
2023-10-29T01:40:51.693Z,90
2023-10-29T01:41:23.546Z,90
2023-10-29T01:41:40.794Z,90
2023-10-29T01:42:12.409Z,90
2023-10-29T01:42:34.627Z,90
2023-10-29T01:42:59.445Z,90
2023-10-29T01:43:31.535Z,90
2023-10-29T01:44:03.501Z,90
2023-10-29T01:44:34.687Z,90
2023-10-29T01:44:51.307Z,90
2023-10-29T01:45:24.635Z,90
2023-10-29T01:45:41.688Z,90
2023-10-29T01:46:11.502Z,90
2023-10-29T01:46:35.697Z,90
2023-10-29T01:46:59.485Z,90
2023-10-29T01:47:32.566Z,89
2023-10-29T01:48:03.552Z,90
2023-10-29T01:48:36.022Z,90
2023-10-29T01:49:08.000Z,90
2023-10-29T01:49:34.704Z,90
2023-10-29T01:49:55.491Z,90
2023-10-29T01:50:27.515Z,90
2023-10-29T01:51:00.428Z,90
2023-10-29T01:51:31.571Z,90
2023-10-29T01:52:04.415Z,90
2023-10-29T01:52:34.659Z,90
2023-10-29T01:53:06.866Z,90
2023-10-29T01:53:24.281Z,90
2023-10-29T01:53:41.637Z,90
2023-10-29T01:54:11.576Z,90
2023-10-29T01:54:34.934Z,90
2023-10-29T01:54:59.672Z,90
2023-10-29T01:55:32.488Z,90
2023-10-29T01:56:03.589Z,90
2023-10-29T01:56:36.783Z,90
2023-10-29T01:57:07.689Z,90
2023-10-29T01:57:34.696Z,90
2023-10-29T01:57:55.482Z,90
2023-10-29T01:58:27.510Z,90
2023-10-29T01:59:00.465Z,90
2023-10-29T01:59:31.543Z,90
2023-10-29T02:00:04.666Z,90
2023-10-29T02:00:34.661Z,90
2023-10-29T02:01:06.916Z,90
2023-10-29T02:01:24.501Z,90
2023-10-29T02:01:41.612Z,90
2023-10-29T02:02:11.515Z,90
2023-10-29T02:02:34.800Z,90
2023-10-29T02:02:59.656Z,90
2023-10-29T02:03:32.688Z,90
2023-10-29T02:04:03.562Z,90
2023-10-29T02:04:35.641Z,90
2023-10-29T02:05:07.590Z,90
2023-10-29T02:05:34.727Z,90
2023-10-29T02:05:55.592Z,90
2023-10-29T02:06:27.519Z,90
2023-10-29T02:07:00.411Z,90
2023-10-29T02:07:31.510Z,90
2023-10-29T02:08:04.522Z,90
2023-10-29T02:08:35.424Z,90
2023-10-29T02:09:08.584Z,90
2023-10-29T02:09:34.738Z,90
2023-10-29T02:09:55.469Z,90
2023-10-29T02:10:27.509Z,90
2023-10-29T02:10:59.501Z,90
2023-10-29T02:11:31.464Z,90
2023-10-29T02:12:03.861Z,90
2023-10-29T02:12:34.684Z,90
2023-10-29T02:13:06.889Z,90
2023-10-29T02:13:24.396Z,90
2023-10-29T02:13:41.649Z,90
2023-10-29T02:14:11.548Z,90
2023-10-29T02:14:35.340Z,90
2023-10-29T02:14:59.563Z,90
2023-10-29T02:15:32.507Z,90
2023-10-29T02:16:04.075Z,90
2023-10-29T02:16:35.668Z,90
2023-10-29T02:17:07.665Z,90
2023-10-29T02:17:34.828Z,90
2023-10-29T02:17:55.582Z,90
2023-10-29T02:18:27.569Z,90
2023-10-29T02:19:00.408Z,90
2023-10-29T02:19:31.539Z,90
2023-10-29T02:20:04.481Z,90
2023-10-29T02:20:34.699Z,90
2023-10-29T02:21:06.856Z,90
2023-10-29T02:21:24.244Z,90
2023-10-29T02:21:41.486Z,90
2023-10-29T02:22:11.484Z,90
2023-10-29T02:22:34.683Z,90
2023-10-29T02:22:59.533Z,90
2023-10-29T02:23:32.392Z,90
2023-10-29T02:24:03.571Z,89
2023-10-29T02:24:35.859Z,89
2023-10-29T02:25:07.788Z,89
2023-10-29T02:25:34.774Z,89
2023-10-29T02:25:55.591Z,89
2023-10-29T02:26:27.492Z,89
2023-10-29T02:27:00.447Z,89
2023-10-29T02:27:31.477Z,89
2023-10-29T02:28:04.591Z,89
2023-10-29T02:28:35.068Z,89
2023-10-29T02:29:08.480Z,89
2023-10-29T02:29:35.228Z,89
2023-10-29T02:29:55.492Z,89
2023-10-29T02:30:27.546Z,89
2023-10-29T02:30:59.625Z,89
2023-10-29T02:31:31.630Z,89
2023-10-29T02:32:03.552Z,89
2023-10-29T02:32:35.126Z,89
2023-10-29T02:33:07.640Z,89
2023-10-29T02:33:34.812Z,89
2023-10-29T02:33:55.431Z,89
2023-10-29T02:34:28.523Z,89
2023-10-29T02:34:59.434Z,89
2023-10-29T02:35:32.493Z,89
2023-10-29T02:36:03.515Z,89
2023-10-29T02:36:35.656Z,89
2023-10-29T02:37:07.534Z,89
2023-10-29T02:37:34.734Z,89
2023-10-29T02:37:55.502Z,89
2023-10-29T02:38:27.524Z,89
2023-10-29T02:39:00.509Z,89
2023-10-29T02:39:31.445Z,89
2023-10-29T02:40:04.560Z,89
2023-10-29T02:40:34.745Z,89
2023-10-29T02:41:06.857Z,89
2023-10-29T02:41:24.381Z,89
2023-10-29T02:41:41.691Z,89
2023-10-29T02:42:11.500Z,89
2023-10-29T02:42:34.647Z,89
2023-10-29T02:42:59.444Z,89
2023-10-29T02:43:32.445Z,89
2023-10-29T02:44:03.492Z,89
2023-10-29T02:44:36.625Z,89
2023-10-29T02:45:07.623Z,89
2023-10-29T02:45:34.828Z,89
2023-10-29T02:45:55.462Z,89
2023-10-29T02:46:27.464Z,89
2023-10-29T02:47:00.568Z,89
2023-10-29T02:47:31.517Z,89
2023-10-29T02:48:04.588Z,89
2023-10-29T02:48:34.764Z,89
2023-10-29T02:48:51.265Z,89
2023-10-29T02:49:23.473Z,88
2023-10-29T02:49:40.652Z,88
2023-10-29T02:50:12.347Z,88
2023-10-29T02:50:35.090Z,88
2023-10-29T02:50:59.465Z,88
2023-10-29T02:51:31.488Z,88
2023-10-29T02:52:03.433Z,88
2023-10-29T02:52:34.698Z,88
2023-10-29T02:53:06.855Z,88
2023-10-29T02:53:24.267Z,88
2023-10-29T02:53:41.642Z,88
2023-10-29T02:54:11.420Z,87
2023-10-29T02:54:35.060Z,87
2023-10-29T02:54:59.503Z,87
2023-10-29T02:55:32.323Z,87
2023-10-29T02:56:03.519Z,87
2023-10-29T02:56:35.734Z,87
2023-10-29T02:57:07.597Z,87
2023-10-29T02:57:34.643Z,87
2023-10-29T02:57:55.435Z,87
2023-10-29T02:58:27.399Z,87
2023-10-29T02:59:00.451Z,87
2023-10-29T02:59:31.472Z,87
2023-10-29T03:00:04.556Z,87
2023-10-29T03:00:34.690Z,87
2023-10-29T03:00:51.289Z,87
2023-10-29T03:01:23.625Z,87
2023-10-29T03:01:40.739Z,87
2023-10-29T03:02:12.430Z,87
2023-10-29T03:02:34.786Z,87
2023-10-29T03:02:59.715Z,87
2023-10-29T03:03:31.780Z,87
2023-10-29T03:04:03.809Z,87
2023-10-29T03:04:34.810Z,87
2023-10-29T03:04:51.180Z,87
2023-10-29T03:05:24.411Z,87
2023-10-29T03:06:11.471Z,87
2023-10-29T03:06:34.685Z,87
2023-10-29T03:06:59.497Z,87
2023-10-29T03:07:32.422Z,87
2023-10-29T03:08:03.438Z,87
2023-10-29T03:08:35.670Z,87
2023-10-29T03:09:07.491Z,87
2023-10-29T03:09:34.674Z,86
2023-10-29T03:09:55.582Z,86
2023-10-29T03:10:27.402Z,86
2023-10-29T03:11:01.551Z,86
2023-10-29T03:11:31.464Z,86
2023-10-29T03:12:04.700Z,86
2023-10-29T03:12:34.680Z,86
2023-10-29T03:13:06.945Z,86
2023-10-29T03:13:24.386Z,86
2023-10-29T03:13:41.846Z,86
2023-10-29T03:14:11.430Z,86
2023-10-29T03:14:34.723Z,86
2023-10-29T03:14:59.433Z,86
2023-10-29T03:15:32.471Z,86
2023-10-29T03:16:03.442Z,86
2023-10-29T03:16:35.757Z,85
2023-10-29T03:17:08.183Z,85
2023-10-29T03:17:34.702Z,85
2023-10-29T03:17:55.518Z,86
2023-10-29T03:18:27.692Z,86
2023-10-29T03:19:00.652Z,86
2023-10-29T03:19:31.448Z,86
2023-10-29T03:20:04.558Z,86
2023-10-29T03:20:34.755Z,86
2023-10-29T03:20:51.205Z,86
2023-10-29T03:21:23.462Z,86
2023-10-29T03:21:40.642Z,86
2023-10-29T03:22:12.793Z,85
2023-10-29T03:22:34.663Z,85
2023-10-29T03:22:59.390Z,86
2023-10-29T03:23:31.464Z,86
2023-10-29T03:24:03.426Z,86
2023-10-29T03:24:34.701Z,86
2023-10-29T03:25:06.948Z,86
2023-10-29T03:25:24.338Z,86
2023-10-29T03:25:41.506Z,86
2023-10-29T03:26:11.427Z,86
2023-10-29T03:26:35.390Z,86
2023-10-29T03:26:59.527Z,86
2023-10-29T03:27:32.384Z,86
2023-10-29T03:28:03.473Z,85
2023-10-29T03:28:36.294Z,85
2023-10-29T03:29:07.583Z,86
2023-10-29T03:29:34.685Z,86
2023-10-29T03:29:55.453Z,86
2023-10-29T03:30:27.436Z,86
2023-10-29T03:31:00.328Z,85
2023-10-29T03:31:31.594Z,85
2023-10-29T03:32:04.319Z,85
2023-10-29T03:32:35.207Z,85
2023-10-29T03:33:08.399Z,85
2023-10-29T03:33:34.817Z,85
2023-10-29T03:33:55.374Z,85
2023-10-29T03:34:27.394Z,85
2023-10-29T03:34:59.329Z,85
2023-10-29T03:35:31.462Z,85
2023-10-29T03:36:03.432Z,85
2023-10-29T03:36:34.665Z,85
2023-10-29T03:36:51.178Z,85
2023-10-29T03:37:24.281Z,85
2023-10-29T03:37:41.533Z,85
2023-10-29T03:38:11.442Z,85
2023-10-29T03:38:34.739Z,85
2023-10-29T03:38:59.425Z,85
2023-10-29T03:39:32.649Z,85
2023-10-29T03:40:03.400Z,85
2023-10-29T03:40:36.080Z,85
2023-10-29T03:41:07.489Z,85
2023-10-29T03:41:35.094Z,85
2023-10-29T03:41:55.446Z,85
2023-10-29T03:42:27.359Z,85
2023-10-29T03:43:00.483Z,85
2023-10-29T03:43:31.380Z,85
2023-10-29T03:44:04.419Z,85
2023-10-29T03:44:34.701Z,85
2023-10-29T03:44:51.174Z,85
2023-10-29T03:45:23.420Z,85
2023-10-29T03:45:40.654Z,85
2023-10-29T03:46:12.432Z,85
2023-10-29T03:46:34.748Z,85
2023-10-29T03:46:59.392Z,84
2023-10-29T03:47:31.456Z,84
2023-10-29T03:48:03.553Z,84
2023-10-29T03:48:35.613Z,84
2023-10-29T03:49:07.522Z,83
2023-10-29T03:49:34.681Z,83
2023-10-29T03:49:55.383Z,83
2023-10-29T03:50:27.428Z,83
2023-10-29T03:51:00.405Z,83
2023-10-29T03:51:31.393Z,83
2023-10-29T03:52:04.279Z,83
2023-10-29T03:52:34.693Z,83
2023-10-29T03:52:51.154Z,83
2023-10-29T03:53:23.392Z,83
2023-10-29T03:53:40.674Z,82
2023-10-29T03:54:12.415Z,82
2023-10-29T03:54:34.649Z,82
2023-10-29T03:54:59.346Z,82
2023-10-29T03:55:33.839Z,82
2023-10-29T03:56:03.369Z,82
2023-10-29T03:56:34.793Z,82
2023-10-29T03:56:52.288Z,83
2023-10-29T03:57:24.436Z,83
2023-10-29T03:57:41.684Z,83
2023-10-29T03:58:11.358Z,83
2023-10-29T03:58:34.818Z,83
2023-10-29T03:58:59.412Z,83
2023-10-29T03:59:32.361Z,82
2023-10-29T04:00:03.501Z,82
2023-10-29T04:00:36.087Z,82
2023-10-29T04:01:07.544Z,82
2023-10-29T04:01:34.746Z,82
2023-10-29T04:01:55.408Z,82
2023-10-29T04:02:27.395Z,82
2023-10-29T04:03:00.474Z,82
2023-10-29T04:03:31.449Z,82
2023-10-29T04:04:04.607Z,81
2023-10-29T04:04:34.753Z,81
2023-10-29T04:05:02.194Z,81
2023-10-29T04:05:23.472Z,82
2023-10-29T04:05:40.611Z,82
2023-10-29T04:06:12.315Z,81
2023-10-29T04:06:34.783Z,81
2023-10-29T04:06:59.326Z,81
2023-10-29T04:07:31.356Z,82
2023-10-29T04:08:03.356Z,82
2023-10-29T04:08:35.271Z,81
2023-10-29T04:09:07.343Z,81
2023-10-29T04:09:34.716Z,81
2023-10-29T04:09:55.364Z,81
2023-10-29T04:10:28.386Z,81
2023-10-29T04:10:59.394Z,81
2023-10-29T04:11:32.284Z,80
2023-10-29T04:12:03.563Z,81
2023-10-29T04:12:36.250Z,81
2023-10-29T04:13:07.382Z,81
2023-10-29T04:13:34.649Z,81
2023-10-29T04:13:55.707Z,80
2023-10-29T04:14:27.377Z,81
2023-10-29T04:15:01.077Z,81
2023-10-29T04:15:31.388Z,81
2023-10-29T04:16:04.370Z,81
2023-10-29T04:16:34.688Z,81
2023-10-29T04:16:51.149Z,81
2023-10-29T04:17:23.349Z,81
2023-10-29T04:17:40.649Z,81
2023-10-29T04:18:12.540Z,81
2023-10-29T04:18:35.420Z,81
2023-10-29T04:18:59.440Z,81
2023-10-29T04:19:31.367Z,81
2023-10-29T04:20:03.445Z,81
2023-10-29T04:20:34.779Z,81
2023-10-29T04:20:51.190Z,81
2023-10-29T04:21:24.286Z,81
2023-10-29T04:21:41.500Z,81
2023-10-29T04:22:11.362Z,82
2023-10-29T04:22:34.649Z,82
2023-10-29T04:22:59.328Z,81
2023-10-29T04:23:32.457Z,81
2023-10-29T04:24:03.365Z,82
2023-10-29T04:24:35.972Z,81
2023-10-29T04:25:07.340Z,82
2023-10-29T04:25:34.651Z,82
2023-10-29T04:25:55.334Z,82
2023-10-29T04:26:27.482Z,82
2023-10-29T04:27:00.617Z,82
2023-10-29T04:27:31.360Z,82
2023-10-29T04:28:04.470Z,83
2023-10-29T04:28:34.735Z,83
2023-10-29T04:28:51.157Z,83
2023-10-29T04:29:23.353Z,83
2023-10-29T04:29:40.640Z,83
2023-10-29T04:30:13.524Z,83
2023-10-29T04:30:34.902Z,82
2023-10-29T04:30:59.495Z,83
2023-10-29T04:31:31.366Z,83
2023-10-29T04:32:03.422Z,83
2023-10-29T04:32:35.091Z,83
2023-10-29T04:33:07.405Z,84
2023-10-29T04:33:34.819Z,84
2023-10-29T04:33:55.468Z,84
2023-10-29T04:34:28.376Z,84
2023-10-29T04:34:59.491Z,84
2023-10-29T04:35:32.506Z,84
2023-10-29T04:36:03.541Z,84
2023-10-29T04:36:36.131Z,84
2023-10-29T04:37:07.401Z,84
2023-10-29T04:37:34.785Z,84
2023-10-29T04:37:55.314Z,84
2023-10-29T04:38:27.360Z,85
2023-10-29T04:39:00.397Z,85
2023-10-29T04:39:31.382Z,85
2023-10-29T04:40:04.382Z,84
2023-10-29T04:40:34.720Z,84
2023-10-29T04:40:51.236Z,84
2023-10-29T04:41:23.415Z,84
2023-10-29T04:41:41.118Z,85
2023-10-29T04:42:13.242Z,84
2023-10-29T04:42:34.677Z,84
2023-10-29T04:43:12.925Z,84
2023-10-29T04:43:16.307Z,84
2023-10-29T04:43:34.664Z,85
2023-10-29T04:44:03.424Z,85
2023-10-29T04:44:34.698Z,85
2023-10-29T04:44:51.242Z,85
2023-10-29T04:45:24.400Z,85
2023-10-29T04:45:41.548Z,85
2023-10-29T04:46:11.349Z,85
2023-10-29T04:46:34.654Z,86
2023-10-29T04:46:59.357Z,86
2023-10-29T04:47:32.393Z,85
2023-10-29T04:48:03.493Z,85
2023-10-29T04:48:35.710Z,86
2023-10-29T04:49:07.352Z,86
2023-10-29T04:49:34.659Z,86
2023-10-29T04:49:55.354Z,86
2023-10-29T04:50:27.455Z,86
2023-10-29T04:51:00.581Z,86
2023-10-29T04:51:31.350Z,86
2023-10-29T04:52:04.317Z,86
2023-10-29T04:52:34.657Z,86
2023-10-29T04:52:51.165Z,86
2023-10-29T04:53:23.327Z,86
2023-10-29T04:53:40.661Z,86
2023-10-29T04:54:12.464Z,86
2023-10-29T04:54:34.796Z,86
2023-10-29T04:55:13.063Z,86
2023-10-29T04:55:16.472Z,86
2023-10-29T04:55:34.655Z,86
2023-10-29T04:56:03.300Z,86
2023-10-29T04:56:34.713Z,86
2023-10-29T04:56:51.146Z,86
2023-10-29T04:57:25.500Z,86
2023-10-29T04:57:42.583Z,86
2023-10-29T04:58:11.292Z,86
2023-10-29T04:58:34.766Z,87
2023-10-29T04:58:59.852Z,87
2023-10-29T04:59:35.893Z,87
2023-10-29T05:00:03.482Z,87
2023-10-29T05:00:34.673Z,87
2023-10-29T05:00:51.159Z,87
2023-10-29T05:01:24.302Z,87
2023-10-29T05:01:41.645Z,87
2023-10-29T05:02:11.352Z,87
2023-10-29T05:02:36.313Z,87
2023-10-29T05:02:59.486Z,87
2023-10-29T05:03:31.384Z,88
2023-10-29T05:04:03.509Z,88
2023-10-29T05:04:34.754Z,88
2023-10-29T05:04:52.355Z,88
2023-10-29T05:05:23.384Z,88
2023-10-29T05:05:40.597Z,88
2023-10-29T05:06:11.438Z,88
2023-10-29T05:06:35.451Z,88
2023-10-29T05:07:01.133Z,88
2023-10-29T05:07:31.413Z,88
2023-10-29T05:08:05.022Z,88
2023-10-29T05:08:34.716Z,88
2023-10-29T05:08:51.392Z,88
2023-10-29T05:09:23.345Z,88
2023-10-29T05:09:40.562Z,88
2023-10-29T05:10:12.592Z,88
2023-10-29T05:10:34.686Z,88
2023-10-29T05:10:59.298Z,88
2023-10-29T05:11:31.395Z,88
2023-10-29T05:12:03.509Z,88
2023-10-29T05:12:34.668Z,88
2023-10-29T05:12:51.154Z,88
2023-10-29T05:13:25.229Z,88
2023-10-29T05:13:42.455Z,88
2023-10-29T05:14:11.295Z,88
2023-10-29T05:14:34.699Z,88
2023-10-29T05:14:59.365Z,88
2023-10-29T05:15:32.378Z,88
2023-10-29T05:16:03.406Z,88
2023-10-29T05:16:36.197Z,88
2023-10-29T05:17:07.306Z,89
2023-10-29T05:17:34.720Z,89
2023-10-29T05:17:55.438Z,89
2023-10-29T05:18:27.474Z,89
2023-10-29T05:19:00.263Z,89
2023-10-29T05:19:31.293Z,89
2023-10-29T05:20:04.377Z,88
2023-10-29T05:20:34.692Z,88
2023-10-29T05:20:51.230Z,89
2023-10-29T05:21:24.253Z,88
2023-10-29T05:21:40.575Z,88
2023-10-29T05:22:12.387Z,88
2023-10-29T05:22:34.669Z,88
2023-10-29T05:22:59.362Z,88
2023-10-29T05:23:31.299Z,88
2023-10-29T05:24:03.482Z,88
2023-10-29T05:24:34.694Z,88
2023-10-29T05:24:51.166Z,88
2023-10-29T05:25:25.269Z,88
2023-10-29T05:25:42.472Z,88
2023-10-29T05:26:11.402Z,88
2023-10-29T05:26:34.684Z,88
2023-10-29T05:26:59.401Z,88
2023-10-29T05:27:32.342Z,88
2023-10-29T05:28:03.287Z,88
2023-10-29T05:28:36.063Z,88
2023-10-29T05:29:07.291Z,88
2023-10-29T05:29:34.710Z,88
2023-10-29T05:29:55.363Z,88
2023-10-29T05:30:27.580Z,88
2023-10-29T05:31:00.395Z,88
2023-10-29T05:31:31.330Z,88
2023-10-29T05:32:04.190Z,89
2023-10-29T05:32:34.935Z,89
2023-10-29T05:32:51.229Z,89
2023-10-29T05:33:23.416Z,89
2023-10-29T05:33:40.478Z,88
2023-10-29T05:34:14.242Z,88
2023-10-29T05:34:34.720Z,88
2023-10-29T05:34:59.320Z,89
2023-10-29T05:35:31.421Z,89
2023-10-29T05:36:03.375Z,89
2023-10-29T05:36:34.701Z,89
2023-10-29T05:36:51.166Z,89
2023-10-29T05:37:24.272Z,89
2023-10-29T05:37:41.769Z,89
2023-10-29T05:38:11.319Z,89
2023-10-29T05:38:34.831Z,89
2023-10-29T05:38:59.450Z,89
2023-10-29T05:39:32.293Z,89
2023-10-29T05:40:03.322Z,89
2023-10-29T05:40:35.591Z,89
2023-10-29T05:41:07.294Z,89
2023-10-29T05:41:34.731Z,89
2023-10-29T05:41:55.294Z,89
2023-10-29T05:42:27.329Z,89
2023-10-29T05:43:00.210Z,89
2023-10-29T05:43:31.320Z,88
2023-10-29T05:44:04.290Z,88
2023-10-29T05:44:34.909Z,88
2023-10-29T05:44:51.507Z,88
2023-10-29T05:45:23.321Z,88
2023-10-29T05:45:40.537Z,88
2023-10-29T05:46:12.202Z,88
2023-10-29T05:46:34.813Z,88
2023-10-29T05:46:59.374Z,88
2023-10-29T05:47:31.354Z,88
2023-10-29T05:48:03.308Z,88
2023-10-29T05:48:34.789Z,88
2023-10-29T05:48:51.099Z,88
2023-10-29T05:49:24.298Z,87
2023-10-29T05:49:41.492Z,87
2023-10-29T05:50:11.267Z,87
2023-10-29T05:50:34.674Z,87
2023-10-29T05:50:59.371Z,87
2023-10-29T05:51:34.014Z,87
2023-10-29T05:52:03.401Z,87
2023-10-29T05:52:36.350Z,87
2023-10-29T05:53:07.336Z,87
2023-10-29T05:53:35.381Z,87
2023-10-29T05:53:55.355Z,87
2023-10-29T05:54:27.248Z,88
2023-10-29T05:55:00.622Z,88
2023-10-29T05:55:31.260Z,88
2023-10-29T05:56:04.216Z,88
2023-10-29T05:56:34.677Z,88
2023-10-29T05:56:51.259Z,88
2023-10-29T05:57:23.287Z,88
2023-10-29T05:57:40.478Z,88
2023-10-29T05:58:12.173Z,88
2023-10-29T05:58:34.646Z,88
2023-10-29T05:58:59.278Z,88
2023-10-29T05:59:31.362Z,88
2023-10-29T06:00:03.377Z,88
2023-10-29T06:00:34.700Z,88
2023-10-29T06:00:51.151Z,88
2023-10-29T06:01:24.141Z,88
2023-10-29T06:01:41.480Z,88
2023-10-29T06:02:11.422Z,88
2023-10-29T06:02:34.834Z,88
2023-10-29T06:02:59.334Z,89
2023-10-29T06:03:33.272Z,89
2023-10-29T06:04:03.382Z,89
2023-10-29T06:04:36.326Z,89
2023-10-29T06:05:07.982Z,89
2023-10-29T06:05:34.897Z,89
2023-10-29T06:05:55.722Z,89
2023-10-29T06:06:34.658Z,89
2023-10-29T06:07:00.185Z,89
2023-10-29T06:07:31.265Z,89
2023-10-29T06:08:04.189Z,89
2023-10-29T06:08:34.737Z,89
2023-10-29T06:08:51.191Z,90
2023-10-29T06:09:24.487Z,89
2023-10-29T06:09:40.584Z,90
2023-10-29T06:10:12.167Z,90
2023-10-29T06:10:34.730Z,90
2023-10-29T06:10:59.305Z,90
2023-10-29T06:11:31.309Z,90
2023-10-29T06:12:03.444Z,90
2023-10-29T06:12:34.707Z,90
2023-10-29T06:12:51.151Z,90
2023-10-29T06:13:24.220Z,90
2023-10-29T06:13:41.391Z,90
2023-10-29T06:14:11.272Z,90
2023-10-29T06:14:35.565Z,90
2023-10-29T06:14:59.313Z,90
2023-10-29T06:15:32.265Z,90
2023-10-29T06:16:03.275Z,90
2023-10-29T06:16:35.819Z,90
2023-10-29T06:17:23.393Z,90
2023-10-29T06:17:34.860Z,90
2023-10-29T06:17:55.447Z,90
2023-10-29T06:18:27.341Z,90
2023-10-29T06:19:00.225Z,90
2023-10-29T06:19:31.301Z,91
2023-10-29T06:20:04.243Z,91
2023-10-29T06:20:34.830Z,91
2023-10-29T06:20:51.236Z,91
2023-10-29T06:21:23.249Z,91
2023-10-29T06:21:40.467Z,91
2023-10-29T06:22:12.208Z,91
2023-10-29T06:22:34.756Z,91
2023-10-29T06:22:59.279Z,91
2023-10-29T06:23:31.519Z,91
2023-10-29T06:24:03.506Z,91
2023-10-29T06:24:34.789Z,91
2023-10-29T06:24:51.183Z,91
2023-10-29T06:25:25.219Z,91
2023-10-29T06:25:42.428Z,91
2023-10-29T06:26:11.444Z,91
2023-10-29T06:26:36.637Z,91
2023-10-29T06:26:59.426Z,91
2023-10-29T06:27:31.301Z,92
2023-10-29T06:28:03.324Z,92
2023-10-29T06:28:34.804Z,92
2023-10-29T06:28:52.275Z,92
2023-10-29T06:29:23.404Z,92
2023-10-29T06:29:40.711Z,92
2023-10-29T06:30:11.378Z,92
2023-10-29T06:30:34.764Z,92
2023-10-29T06:31:00.370Z,92
2023-10-29T06:31:31.363Z,92
2023-10-29T06:32:04.389Z,92
2023-10-29T06:32:34.811Z,92
2023-10-29T06:32:51.306Z,92
2023-10-29T06:33:23.363Z,92
2023-10-29T06:33:40.852Z,92
2023-10-29T06:34:12.327Z,92
2023-10-29T06:34:35.478Z,92
2023-10-29T06:34:59.313Z,92
2023-10-29T06:35:31.430Z,92
2023-10-29T06:36:03.229Z,92
2023-10-29T06:36:34.695Z,92
2023-10-29T06:36:51.304Z,92
2023-10-29T06:37:24.188Z,92
2023-10-29T06:37:41.447Z,92
2023-10-29T06:38:11.320Z,92